sensor_id;sensor_type;location;lat;lon;timestamp;P1;durP1;ratioP1;P2;durP2;ratioP2
66802;SDS011;53705;49.860;8.744;2023-06-26T00:00:02;4.13;;;1.52;;
66802;SDS011;53705;49.860;8.744;2023-06-26T00:02:31;3.88;;;1.52;;
66802;SDS011;53705;49.860;8.744;2023-06-26T00:05:00;5.80;;;1.92;;
66802;SDS011;53705;49.860;8.744;2023-06-26T00:07:31;4.05;;;2.53;;
66802;SDS011;53705;49.860;8.744;2023-06-26T00:10:00;4.57;;;2.90;;
66802;SDS011;53705;49.860;8.744;2023-06-26T00:12:30;4.55;;;2.92;;
66802;SDS011;53705;49.860;8.744;2023-06-26T00:14:59;6.60;;;1.60;;
66802;SDS011;53705;49.860;8.744;2023-06-26T00:17:27;4.75;;;2.03;;
66802;SDS011;53705;49.860;8.744;2023-06-26T00:19:54;5.72;;;3.20;;
66802;SDS011;53705;49.860;8.744;2023-06-26T00:22:22;5.30;;;3.15;;
66802;SDS011;53705;49.860;8.744;2023-06-26T00:24:52;4.18;;;1.70;;
66802;SDS011;53705;49.860;8.744;2023-06-26T00:27:20;6.10;;;2.03;;
66802;SDS011;53705;49.860;8.744;2023-06-26T00:29:48;4.20;;;2.53;;
66802;SDS011;53705;49.860;8.744;2023-06-26T00:32:16;4.32;;;2.08;;
66802;SDS011;53705;49.860;8.744;2023-06-26T00:34:44;4.45;;;2.03;;
66802;SDS011;53705;49.860;8.744;2023-06-26T00:37:15;3.95;;;1.60;;
66802;SDS011;53705;49.860;8.744;2023-06-26T00:39:43;5.28;;;2.60;;
66802;SDS011;53705;49.860;8.744;2023-06-26T00:42:12;4.43;;;2.00;;
66802;SDS011;53705;49.860;8.744;2023-06-26T00:44:40;3.92;;;1.45;;
66802;SDS011;53705;49.860;8.744;2023-06-26T00:47:08;4.85;;;2.60;;
66802;SDS011;53705;49.860;8.744;2023-06-26T00:49:37;4.65;;;1.98;;
66802;SDS011;53705;49.860;8.744;2023-06-26T00:52:05;5.25;;;2.03;;
66802;SDS011;53705;49.860;8.744;2023-06-26T00:54:33;4.55;;;1.90;;
66802;SDS011;53705;49.860;8.744;2023-06-26T00:57:01;5.05;;;2.03;;
66802;SDS011;53705;49.860;8.744;2023-06-26T00:59:30;5.07;;;1.90;;
66802;SDS011;53705;49.860;8.744;2023-06-26T01:01:58;6.70;;;3.45;;
66802;SDS011;53705;49.860;8.744;2023-06-26T01:04:25;4.70;;;2.88;;
66802;SDS011;53705;49.860;8.744;2023-06-26T01:06:54;4.90;;;3.13;;
66802;SDS011;53705;49.860;8.744;2023-06-26T01:09:24;3.53;;;1.52;;
66802;SDS011;53705;49.860;8.744;2023-06-26T01:11:52;4.72;;;1.83;;
66802;SDS011;53705;49.860;8.744;2023-06-26T01:14:20;4.80;;;2.53;;
66802;SDS011;53705;49.860;8.744;2023-06-26T01:16:50;4.72;;;2.17;;
66802;SDS011;53705;49.860;8.744;2023-06-26T01:19:19;4.38;;;2.08;;
66802;SDS011;53705;49.860;8.744;2023-06-26T01:21:54;5.18;;;2.33;;
66802;SDS011;53705;49.860;8.744;2023-06-26T01:24:25;6.43;;;2.80;;
66802;SDS011;53705;49.860;8.744;2023-06-26T01:26:58;7.38;;;2.28;;
66802;SDS011;53705;49.860;8.744;2023-06-26T01:29:27;6.07;;;2.33;;
66802;SDS011;53705;49.860;8.744;2023-06-26T01:31:56;4.82;;;1.85;;
66802;SDS011;53705;49.860;8.744;2023-06-26T01:34:23;5.35;;;2.33;;
66802;SDS011;53705;49.860;8.744;2023-06-26T01:36:52;4.50;;;1.98;;
66802;SDS011;53705;49.860;8.744;2023-06-26T01:39:19;4.35;;;1.60;;
66802;SDS011;53705;49.860;8.744;2023-06-26T01:41:50;5.78;;;2.90;;
66802;SDS011;53705;49.860;8.744;2023-06-26T01:44:23;4.97;;;1.83;;
66802;SDS011;53705;49.860;8.744;2023-06-26T01:46:58;5.30;;;2.03;;
66802;SDS011;53705;49.860;8.744;2023-06-26T01:49:31;6.50;;;2.80;;
66802;SDS011;53705;49.860;8.744;2023-06-26T01:52:03;6.50;;;1.85;;
66802;SDS011;53705;49.860;8.744;2023-06-26T01:54:36;6.15;;;3.85;;
66802;SDS011;53705;49.860;8.744;2023-06-26T01:57:05;5.60;;;1.88;;
66802;SDS011;53705;49.860;8.744;2023-06-26T01:59:34;5.45;;;3.13;;
66802;SDS011;53705;49.860;8.744;2023-06-26T02:02:02;4.63;;;2.20;;
66802;SDS011;53705;49.860;8.744;2023-06-26T02:04:36;6.07;;;2.08;;
66802;SDS011;53705;49.860;8.744;2023-06-26T02:07:05;5.72;;;2.22;;
66802;SDS011;53705;49.860;8.744;2023-06-26T02:09:33;4.70;;;2.03;;
66802;SDS011;53705;49.860;8.744;2023-06-26T02:12:01;4.63;;;1.70;;
66802;SDS011;53705;49.860;8.744;2023-06-26T02:14:29;5.20;;;3.20;;
66802;SDS011;53705;49.860;8.744;2023-06-26T02:16:58;5.38;;;3.42;;
66802;SDS011;53705;49.860;8.744;2023-06-26T02:19:26;4.68;;;2.03;;
66802;SDS011;53705;49.860;8.744;2023-06-26T02:21:54;5.25;;;2.15;;
66802;SDS011;53705;49.860;8.744;2023-06-26T02:24:23;4.90;;;1.65;;
66802;SDS011;53705;49.860;8.744;2023-06-26T02:26:51;4.85;;;2.03;;
66802;SDS011;53705;49.860;8.744;2023-06-26T04:18:26;5.80;;;2.60;;
66802;SDS011;53705;49.860;8.744;2023-06-26T04:21:03;6.57;;;2.60;;
66802;SDS011;53705;49.860;8.744;2023-06-26T04:23:31;7.38;;;2.63;;
66802;SDS011;53705;49.860;8.744;2023-06-26T04:25:59;6.45;;;2.67;;
66802;SDS011;53705;49.860;8.744;2023-06-26T04:28:27;5.25;;;2.45;;
66802;SDS011;53705;49.860;8.744;2023-06-26T04:30:55;6.78;;;3.20;;
66802;SDS011;53705;49.860;8.744;2023-06-26T04:33:22;5.63;;;2.45;;
66802;SDS011;53705;49.860;8.744;2023-06-26T04:35:52;7.18;;;4.40;;
66802;SDS011;53705;49.860;8.744;2023-06-26T04:38:20;5.95;;;3.78;;
66802;SDS011;53705;49.860;8.744;2023-06-26T04:40:48;5.68;;;2.42;;
66802;SDS011;53705;49.860;8.744;2023-06-26T04:43:16;6.57;;;3.78;;
66802;SDS011;53705;49.860;8.744;2023-06-26T04:45:44;6.75;;;2.72;;
66802;SDS011;53705;49.860;8.744;2023-06-26T04:48:12;7.65;;;2.97;;
66802;SDS011;53705;49.860;8.744;2023-06-26T04:50:39;7.20;;;3.30;;
66802;SDS011;53705;49.860;8.744;2023-06-26T04:53:09;6.80;;;3.33;;
66802;SDS011;53705;49.860;8.744;2023-06-26T04:55:37;5.55;;;3.42;;
66802;SDS011;53705;49.860;8.744;2023-06-26T04:58:05;6.00;;;3.90;;
66802;SDS011;53705;49.860;8.744;2023-06-26T05:00:33;6.35;;;3.05;;
66802;SDS011;53705;49.860;8.744;2023-06-26T05:03:03;5.55;;;2.30;;
66802;SDS011;53705;49.860;8.744;2023-06-26T05:05:31;9.57;;;2.58;;
66802;SDS011;53705;49.860;8.744;2023-06-26T05:07:59;6.40;;;2.83;;
66802;SDS011;53705;49.860;8.744;2023-06-26T05:10:41;6.55;;;3.65;;
66802;SDS011;53705;49.860;8.744;2023-06-26T05:13:09;7.10;;;3.20;;
66802;SDS011;53705;49.860;8.744;2023-06-26T05:15:37;8.75;;;4.70;;
66802;SDS011;53705;49.860;8.744;2023-06-26T05:18:05;7.43;;;4.53;;
66802;SDS011;53705;49.860;8.744;2023-06-26T05:20:33;7.32;;;4.05;;
66802;SDS011;53705;49.860;8.744;2023-06-26T05:23:01;6.03;;;3.10;;
66802;SDS011;53705;49.860;8.744;2023-06-26T05:25:29;6.50;;;3.83;;
66802;SDS011;53705;49.860;8.744;2023-06-26T05:27:59;5.88;;;3.42;;
66802;SDS011;53705;49.860;8.744;2023-06-26T05:30:27;8.13;;;4.95;;
66802;SDS011;53705;49.860;8.744;2023-06-26T05:32:58;5.70;;;3.50;;
66802;SDS011;53705;49.860;8.744;2023-06-26T05:35:28;7.70;;;4.25;;
66802;SDS011;53705;49.860;8.744;2023-06-26T05:37:56;7.20;;;4.07;;
66802;SDS011;53705;49.860;8.744;2023-06-26T05:40:24;7.75;;;3.13;;
66802;SDS011;53705;49.860;8.744;2023-06-26T05:42:52;6.60;;;4.35;;
66802;SDS011;53705;49.860;8.744;2023-06-26T05:45:22;7.45;;;2.95;;
66802;SDS011;53705;49.860;8.744;2023-06-26T05:47:50;7.60;;;3.47;;
66802;SDS011;53705;49.860;8.744;2023-06-26T05:50:18;7.03;;;4.10;;
66802;SDS011;53705;49.860;8.744;2023-06-26T05:52:47;5.80;;;3.90;;
66802;SDS011;53705;49.860;8.744;2023-06-26T05:55:15;5.88;;;3.22;;
66802;SDS011;53705;49.860;8.744;2023-06-26T05:57:43;6.40;;;4.30;;
66802;SDS011;53705;49.860;8.744;2023-06-26T06:00:12;6.38;;;3.10;;
66802;SDS011;53705;49.860;8.744;2023-06-26T06:02:42;7.53;;;3.55;;
66802;SDS011;53705;49.860;8.744;2023-06-26T06:05:10;7.63;;;3.20;;
66802;SDS011;53705;49.860;8.744;2023-06-26T06:07:39;7.47;;;4.70;;
66802;SDS011;53705;49.860;8.744;2023-06-26T06:10:07;6.45;;;4.18;;
66802;SDS011;53705;49.860;8.744;2023-06-26T06:12:34;8.93;;;4.55;;
66802;SDS011;53705;49.860;8.744;2023-06-26T06:15:02;8.60;;;5.43;;
66802;SDS011;53705;49.860;8.744;2023-06-26T06:17:31;7.47;;;3.45;;
66802;SDS011;53705;49.860;8.744;2023-06-26T06:20:02;8.43;;;3.95;;
66802;SDS011;53705;49.860;8.744;2023-06-26T06:22:30;7.18;;;3.55;;
66802;SDS011;53705;49.860;8.744;2023-06-26T06:24:58;10.07;;;4.30;;
66802;SDS011;53705;49.860;8.744;2023-06-26T06:27:27;8.25;;;3.47;;
66802;SDS011;53705;49.860;8.744;2023-06-26T06:29:55;8.20;;;3.85;;
66802;SDS011;53705;49.860;8.744;2023-06-26T06:32:22;10.38;;;4.50;;
66802;SDS011;53705;49.860;8.744;2023-06-26T06:34:50;8.07;;;3.00;;
66802;SDS011;53705;49.860;8.744;2023-06-26T06:37:19;8.10;;;4.85;;
66802;SDS011;53705;49.860;8.744;2023-06-26T06:39:47;7.90;;;4.68;;
66802;SDS011;53705;49.860;8.744;2023-06-26T06:42:15;7.22;;;4.97;;
66802;SDS011;53705;49.860;8.744;2023-06-26T06:44:42;8.23;;;3.17;;
66802;SDS011;53705;49.860;8.744;2023-06-26T06:47:11;7.22;;;3.67;;
66802;SDS011;53705;49.860;8.744;2023-06-26T06:49:38;7.88;;;3.75;;
66802;SDS011;53705;49.860;8.744;2023-06-26T06:52:06;7.80;;;4.03;;
66802;SDS011;53705;49.860;8.744;2023-06-26T06:54:49;8.77;;;4.82;;
66802;SDS011;53705;49.860;8.744;2023-06-26T06:57:18;7.18;;;3.65;;
66802;SDS011;53705;49.860;8.744;2023-06-26T06:59:46;9.07;;;2.97;;
66802;SDS011;53705;49.860;8.744;2023-06-26T07:02:14;8.00;;;5.10;;
66802;SDS011;53705;49.860;8.744;2023-06-26T07:04:41;9.57;;;4.32;;
66802;SDS011;53705;49.860;8.744;2023-06-26T07:07:09;7.28;;;3.53;;
66802;SDS011;53705;49.860;8.744;2023-06-26T07:09:37;7.90;;;4.35;;
66802;SDS011;53705;49.860;8.744;2023-06-26T07:12:07;14.15;;;4.13;;
66802;SDS011;53705;49.860;8.744;2023-06-26T07:14:35;6.32;;;3.60;;
66802;SDS011;53705;49.860;8.744;2023-06-26T07:17:03;8.45;;;4.78;;
66802;SDS011;53705;49.860;8.744;2023-06-26T07:19:30;8.07;;;4.30;;
66802;SDS011;53705;49.860;8.744;2023-06-26T07:21:58;8.27;;;4.35;;
66802;SDS011;53705;49.860;8.744;2023-06-26T07:24:26;9.90;;;3.95;;
66802;SDS011;53705;49.860;8.744;2023-06-26T07:26:54;8.48;;;4.88;;
66802;SDS011;53705;49.860;8.744;2023-06-26T07:29:23;9.32;;;4.82;;
66802;SDS011;53705;49.860;8.744;2023-06-26T07:31:51;7.82;;;4.38;;
66802;SDS011;53705;49.860;8.744;2023-06-26T07:34:19;5.85;;;3.10;;
66802;SDS011;53705;49.860;8.744;2023-06-26T07:36:47;7.93;;;4.43;;
66802;SDS011;53705;49.860;8.744;2023-06-26T07:39:14;7.72;;;4.22;;
66802;SDS011;53705;49.860;8.744;2023-06-26T07:41:49;8.00;;;4.53;;
66802;SDS011;53705;49.860;8.744;2023-06-26T07:44:16;8.40;;;5.05;;
66802;SDS011;53705;49.860;8.744;2023-06-26T07:46:46;10.48;;;4.35;;
66802;SDS011;53705;49.860;8.744;2023-06-26T07:49:14;6.40;;;3.30;;
66802;SDS011;53705;49.860;8.744;2023-06-26T07:51:42;8.18;;;4.07;;
66802;SDS011;53705;49.860;8.744;2023-06-26T07:54:10;7.32;;;3.22;;
66802;SDS011;53705;49.860;8.744;2023-06-26T07:56:51;8.20;;;4.75;;
66802;SDS011;53705;49.860;8.744;2023-06-26T07:59:19;6.88;;;4.20;;
66802;SDS011;53705;49.860;8.744;2023-06-26T08:01:49;5.70;;;3.83;;
66802;SDS011;53705;49.860;8.744;2023-06-26T08:04:18;8.30;;;4.55;;
66802;SDS011;53705;49.860;8.744;2023-06-26T08:06:47;7.82;;;4.82;;
66802;SDS011;53705;49.860;8.744;2023-06-26T08:09:15;8.30;;;4.90;;
66802;SDS011;53705;49.860;8.744;2023-06-26T08:11:43;7.78;;;4.38;;
66802;SDS011;53705;49.860;8.744;2023-06-26T08:14:11;7.68;;;4.65;;
66802;SDS011;53705;49.860;8.744;2023-06-26T08:16:39;8.88;;;3.50;;
66802;SDS011;53705;49.860;8.744;2023-06-26T08:19:08;7.70;;;4.75;;
66802;SDS011;53705;49.860;8.744;2023-06-26T08:21:36;8.68;;;4.68;;
66802;SDS011;53705;49.860;8.744;2023-06-26T08:24:04;8.02;;;4.75;;
66802;SDS011;53705;49.860;8.744;2023-06-26T08:26:32;7.72;;;5.45;;
66802;SDS011;53705;49.860;8.744;2023-06-26T08:29:00;8.15;;;4.95;;
66802;SDS011;53705;49.860;8.744;2023-06-26T08:31:37;8.70;;;4.50;;
66802;SDS011;53705;49.860;8.744;2023-06-26T08:34:06;8.07;;;5.05;;
66802;SDS011;53705;49.860;8.744;2023-06-26T08:36:36;8.35;;;5.10;;
66802;SDS011;53705;49.860;8.744;2023-06-26T08:39:05;6.93;;;5.07;;
66802;SDS011;53705;49.860;8.744;2023-06-26T08:41:35;9.65;;;5.47;;
66802;SDS011;53705;49.860;8.744;2023-06-26T08:44:03;11.38;;;5.43;;
66802;SDS011;53705;49.860;8.744;2023-06-26T08:46:31;10.15;;;4.93;;
66802;SDS011;53705;49.860;8.744;2023-06-26T08:49:00;9.02;;;4.75;;
66802;SDS011;53705;49.860;8.744;2023-06-26T08:51:28;7.53;;;5.07;;
66802;SDS011;53705;49.860;8.744;2023-06-26T08:53:59;8.10;;;5.18;;
66802;SDS011;53705;49.860;8.744;2023-06-26T08:56:27;7.68;;;5.07;;
66802;SDS011;53705;49.860;8.744;2023-06-26T08:58:56;7.93;;;4.72;;
66802;SDS011;53705;49.860;8.744;2023-06-26T09:01:24;9.73;;;4.47;;
66802;SDS011;53705;49.860;8.744;2023-06-26T09:03:52;8.63;;;5.05;;
66802;SDS011;53705;49.860;8.744;2023-06-26T09:06:20;9.07;;;4.78;;
66802;SDS011;53705;49.860;8.744;2023-06-26T09:08:48;7.35;;;4.70;;
66802;SDS011;53705;49.860;8.744;2023-06-26T09:11:18;7.70;;;4.90;;
66802;SDS011;53705;49.860;8.744;2023-06-26T09:13:45;7.57;;;4.53;;
66802;SDS011;53705;49.860;8.744;2023-06-26T09:16:14;8.02;;;5.38;;
66802;SDS011;53705;49.860;8.744;2023-06-26T09:18:44;8.25;;;4.22;;
66802;SDS011;53705;49.860;8.744;2023-06-26T09:21:13;7.03;;;4.40;;
66802;SDS011;53705;49.860;8.744;2023-06-26T09:23:42;9.43;;;5.82;;
66802;SDS011;53705;49.860;8.744;2023-06-26T09:26:10;9.15;;;4.68;;
66802;SDS011;53705;49.860;8.744;2023-06-26T09:28:41;8.45;;;4.63;;
66802;SDS011;53705;49.860;8.744;2023-06-26T09:31:09;8.07;;;5.47;;
66802;SDS011;53705;49.860;8.744;2023-06-26T09:33:38;9.50;;;5.13;;
66802;SDS011;53705;49.860;8.744;2023-06-26T09:36:06;7.90;;;4.28;;
66802;SDS011;53705;49.860;8.744;2023-06-26T09:38:36;8.68;;;4.78;;
66802;SDS011;53705;49.860;8.744;2023-06-26T09:41:04;8.50;;;5.25;;
66802;SDS011;53705;49.860;8.744;2023-06-26T09:43:32;6.13;;;3.92;;
66802;SDS011;53705;49.860;8.744;2023-06-26T09:46:01;6.40;;;3.65;;
66802;SDS011;53705;49.860;8.744;2023-06-26T09:48:29;6.07;;;4.18;;
66802;SDS011;53705;49.860;8.744;2023-06-26T09:50:57;6.68;;;3.85;;
66802;SDS011;53705;49.860;8.744;2023-06-26T09:53:39;6.05;;;4.13;;
66802;SDS011;53705;49.860;8.744;2023-06-26T09:56:14;6.00;;;3.90;;
66802;SDS011;53705;49.860;8.744;2023-06-26T09:58:42;8.25;;;3.95;;
66802;SDS011;53705;49.860;8.744;2023-06-26T10:01:12;6.93;;;4.07;;
66802;SDS011;53705;49.860;8.744;2023-06-26T10:03:40;5.68;;;2.58;;
66802;SDS011;53705;49.860;8.744;2023-06-26T10:06:09;6.70;;;3.00;;
66802;SDS011;53705;49.860;8.744;2023-06-26T10:08:37;7.18;;;4.90;;
66802;SDS011;53705;49.860;8.744;2023-06-26T10:11:05;7.72;;;4.35;;
66802;SDS011;53705;49.860;8.744;2023-06-26T10:13:34;6.55;;;4.55;;
66802;SDS011;53705;49.860;8.744;2023-06-26T10:16:05;8.95;;;4.28;;
66802;SDS011;53705;49.860;8.744;2023-06-26T10:18:35;5.93;;;4.25;;
66802;SDS011;53705;49.860;8.744;2023-06-26T10:21:04;7.45;;;5.00;;
66802;SDS011;53705;49.860;8.744;2023-06-26T10:23:32;7.75;;;4.82;;
66802;SDS011;53705;49.860;8.744;2023-06-26T10:26:01;7.03;;;4.72;;
66802;SDS011;53705;49.860;8.744;2023-06-26T10:28:30;6.60;;;4.55;;
66802;SDS011;53705;49.860;8.744;2023-06-26T10:30:59;7.43;;;2.97;;
66802;SDS011;53705;49.860;8.744;2023-06-26T10:33:28;7.03;;;4.88;;
66802;SDS011;53705;49.860;8.744;2023-06-26T10:38:49;8.55;;;4.43;;
66802;SDS011;53705;49.860;8.744;2023-06-26T10:41:21;6.25;;;4.22;;
66802;SDS011;53705;49.860;8.744;2023-06-26T10:43:50;7.55;;;5.18;;
66802;SDS011;53705;49.860;8.744;2023-06-26T10:46:18;5.68;;;3.40;;
66802;SDS011;53705;49.860;8.744;2023-06-26T10:48:56;9.80;;;5.15;;
66802;SDS011;53705;49.860;8.744;2023-06-26T10:51:25;7.80;;;4.85;;
66802;SDS011;53705;49.860;8.744;2023-06-26T10:53:56;6.22;;;3.95;;
66802;SDS011;53705;49.860;8.744;2023-06-26T10:56:40;7.25;;;4.60;;
66802;SDS011;53705;49.860;8.744;2023-06-26T10:59:16;6.57;;;4.43;;
66802;SDS011;53705;49.860;8.744;2023-06-26T11:01:44;5.90;;;4.22;;
66802;SDS011;53705;49.860;8.744;2023-06-26T11:04:13;6.43;;;4.55;;
66802;SDS011;53705;49.860;8.744;2023-06-26T11:06:44;7.43;;;4.68;;
66802;SDS011;53705;49.860;8.744;2023-06-26T11:09:17;8.18;;;4.15;;
66802;SDS011;53705;49.860;8.744;2023-06-26T11:11:55;6.78;;;3.13;;
66802;SDS011;53705;49.860;8.744;2023-06-26T11:14:25;5.90;;;3.75;;
66802;SDS011;53705;49.860;8.744;2023-06-26T11:16:55;5.90;;;4.78;;
66802;SDS011;53705;49.860;8.744;2023-06-26T11:19:23;6.68;;;4.63;;
66802;SDS011;53705;49.860;8.744;2023-06-26T11:21:52;7.57;;;4.90;;
66802;SDS011;53705;49.860;8.744;2023-06-26T11:24:26;7.65;;;4.55;;
66802;SDS011;53705;49.860;8.744;2023-06-26T11:26:55;7.05;;;4.68;;
66802;SDS011;53705;49.860;8.744;2023-06-26T11:29:27;6.88;;;3.70;;
66802;SDS011;53705;49.860;8.744;2023-06-26T11:31:58;6.53;;;4.63;;
66802;SDS011;53705;49.860;8.744;2023-06-26T11:34:31;6.28;;;4.03;;
66802;SDS011;53705;49.860;8.744;2023-06-26T11:36:58;6.70;;;4.07;;
66802;SDS011;53705;49.860;8.744;2023-06-26T11:39:30;6.18;;;4.25;;
66802;SDS011;53705;49.860;8.744;2023-06-26T11:41:59;7.43;;;4.15;;
66802;SDS011;53705;49.860;8.744;2023-06-26T11:44:29;12.32;;;4.32;;
66802;SDS011;53705;49.860;8.744;2023-06-26T11:46:57;6.15;;;4.20;;
66802;SDS011;53705;49.860;8.744;2023-06-26T11:49:25;7.25;;;4.20;;
66802;SDS011;53705;49.860;8.744;2023-06-26T11:51:54;6.53;;;4.35;;
66802;SDS011;53705;49.860;8.744;2023-06-26T11:54:23;5.75;;;3.70;;
66802;SDS011;53705;49.860;8.744;2023-06-26T11:56:56;6.60;;;4.03;;
66802;SDS011;53705;49.860;8.744;2023-06-26T11:59:24;7.88;;;3.65;;
66802;SDS011;53705;49.860;8.744;2023-06-26T12:01:59;7.28;;;3.88;;
66802;SDS011;53705;49.860;8.744;2023-06-26T12:04:27;6.03;;;3.13;;
66802;SDS011;53705;49.860;8.744;2023-06-26T12:06:55;6.82;;;4.90;;
66802;SDS011;53705;49.860;8.744;2023-06-26T12:09:24;6.30;;;3.83;;
66802;SDS011;53705;49.860;8.744;2023-06-26T12:11:53;10.05;;;3.75;;
66802;SDS011;53705;49.860;8.744;2023-06-26T12:14:23;5.18;;;2.55;;
66802;SDS011;53705;49.860;8.744;2023-06-26T12:16:52;4.32;;;2.17;;
66802;SDS011;53705;49.860;8.744;2023-06-26T12:19:23;7.28;;;2.15;;
66802;SDS011;53705;49.860;8.744;2023-06-26T12:21:51;7.82;;;4.78;;
66802;SDS011;53705;49.860;8.744;2023-06-26T12:24:20;6.05;;;3.83;;
66802;SDS011;53705;49.860;8.744;2023-06-26T12:26:49;6.35;;;3.75;;
66802;SDS011;53705;49.860;8.744;2023-06-26T12:29:18;7.95;;;3.97;;
66802;SDS011;53705;49.860;8.744;2023-06-26T12:31:50;7.28;;;4.90;;
66802;SDS011;53705;49.860;8.744;2023-06-26T12:34:19;6.82;;;3.00;;
66802;SDS011;53705;49.860;8.744;2023-06-26T12:36:47;6.35;;;3.85;;
66802;SDS011;53705;49.860;8.744;2023-06-26T12:39:16;9.15;;;3.80;;
66802;SDS011;53705;49.860;8.744;2023-06-26T12:41:45;5.82;;;3.70;;
66802;SDS011;53705;49.860;8.744;2023-06-26T12:44:16;5.63;;;3.25;;
66802;SDS011;53705;49.860;8.744;2023-06-26T12:46:45;6.95;;;3.95;;
66802;SDS011;53705;49.860;8.744;2023-06-26T12:49:14;7.15;;;4.13;;
66802;SDS011;53705;49.860;8.744;2023-06-26T12:51:57;7.20;;;4.25;;
66802;SDS011;53705;49.860;8.744;2023-06-26T12:54:25;7.30;;;4.45;;
66802;SDS011;53705;49.860;8.744;2023-06-26T12:56:53;6.68;;;4.13;;
66802;SDS011;53705;49.860;8.744;2023-06-26T12:59:21;6.70;;;4.68;;
66802;SDS011;53705;49.860;8.744;2023-06-26T13:01:48;8.27;;;5.15;;
66802;SDS011;53705;49.860;8.744;2023-06-26T13:04:18;8.30;;;5.03;;
66802;SDS011;53705;49.860;8.744;2023-06-26T13:06:47;7.35;;;4.93;;
66802;SDS011;53705;49.860;8.744;2023-06-26T13:09:15;8.25;;;4.32;;
66802;SDS011;53705;49.860;8.744;2023-06-26T13:11:42;8.98;;;5.28;;
66802;SDS011;53705;49.860;8.744;2023-06-26T13:14:11;8.50;;;5.75;;
66802;SDS011;53705;49.860;8.744;2023-06-26T13:16:39;7.57;;;4.95;;
66802;SDS011;53705;49.860;8.744;2023-06-26T13:19:07;6.68;;;4.30;;
66802;SDS011;53705;49.860;8.744;2023-06-26T13:21:36;6.45;;;4.35;;
66802;SDS011;53705;49.860;8.744;2023-06-26T13:24:04;6.13;;;4.03;;
66802;SDS011;53705;49.860;8.744;2023-06-26T13:26:32;5.60;;;3.90;;
66802;SDS011;53705;49.860;8.744;2023-06-26T13:29:04;6.32;;;3.45;;
66802;SDS011;53705;49.860;8.744;2023-06-26T13:31:32;5.63;;;3.83;;
66802;SDS011;53705;49.860;8.744;2023-06-26T13:34:00;6.10;;;4.05;;
66802;SDS011;53705;49.860;8.744;2023-06-26T13:36:28;6.80;;;3.80;;
66802;SDS011;53705;49.860;8.744;2023-06-26T13:38:57;5.95;;;3.58;;
66802;SDS011;53705;49.860;8.744;2023-06-26T13:41:25;7.82;;;3.60;;
66802;SDS011;53705;49.860;8.744;2023-06-26T13:43:54;9.32;;;3.33;;
66802;SDS011;53705;49.860;8.744;2023-06-26T13:46:35;6.38;;;3.13;;
66802;SDS011;53705;49.860;8.744;2023-06-26T13:49:03;4.45;;;2.72;;
66802;SDS011;53705;49.860;8.744;2023-06-26T13:51:31;6.93;;;3.08;;
66802;SDS011;53705;49.860;8.744;2023-06-26T13:54:00;7.15;;;2.80;;
66802;SDS011;53705;49.860;8.744;2023-06-26T13:56:28;8.10;;;3.80;;
66802;SDS011;53705;49.860;8.744;2023-06-26T13:58:57;7.93;;;4.20;;
66802;SDS011;53705;49.860;8.744;2023-06-26T14:01:25;6.30;;;3.78;;
66802;SDS011;53705;49.860;8.744;2023-06-26T14:03:54;6.05;;;3.20;;
66802;SDS011;53705;49.860;8.744;2023-06-26T14:06:21;5.43;;;3.72;;
66802;SDS011;53705;49.860;8.744;2023-06-26T14:08:49;6.45;;;3.75;;
66802;SDS011;53705;49.860;8.744;2023-06-26T14:11:19;7.22;;;4.93;;
66802;SDS011;53705;49.860;8.744;2023-06-26T14:13:47;7.35;;;3.67;;
66802;SDS011;53705;49.860;8.744;2023-06-26T14:16:15;8.68;;;3.35;;
66802;SDS011;53705;49.860;8.744;2023-06-26T14:18:45;5.57;;;3.78;;
66802;SDS011;53705;49.860;8.744;2023-06-26T14:21:13;7.07;;;3.55;;
66802;SDS011;53705;49.860;8.744;2023-06-26T14:23:41;5.78;;;3.10;;
66802;SDS011;53705;49.860;8.744;2023-06-26T14:26:09;5.88;;;3.97;;
66802;SDS011;53705;49.860;8.744;2023-06-26T14:28:39;5.07;;;2.47;;
66802;SDS011;53705;49.860;8.744;2023-06-26T14:31:07;5.88;;;3.33;;
66802;SDS011;53705;49.860;8.744;2023-06-26T14:33:35;8.32;;;3.00;;
66802;SDS011;53705;49.860;8.744;2023-06-26T14:36:06;5.72;;;3.47;;
66802;SDS011;53705;49.860;8.744;2023-06-26T14:38:34;4.95;;;2.65;;
66802;SDS011;53705;49.860;8.744;2023-06-26T14:41:02;5.25;;;1.92;;
66802;SDS011;53705;49.860;8.744;2023-06-26T14:43:30;5.55;;;2.67;;
66802;SDS011;53705;49.860;8.744;2023-06-26T14:46:00;6.60;;;2.58;;
66802;SDS011;53705;49.860;8.744;2023-06-26T14:48:28;5.53;;;2.70;;
66802;SDS011;53705;49.860;8.744;2023-06-26T14:50:56;7.40;;;2.95;;
66802;SDS011;53705;49.860;8.744;2023-06-26T14:53:24;8.13;;;2.72;;
66802;SDS011;53705;49.860;8.744;2023-06-26T14:55:52;3.58;;;1.33;;
66802;SDS011;53705;49.860;8.744;2023-06-26T14:58:20;5.28;;;2.47;;
66802;SDS011;53705;49.860;8.744;2023-06-26T15:00:47;7.45;;;2.30;;
66802;SDS011;53705;49.860;8.744;2023-06-26T15:03:17;6.18;;;3.40;;
66802;SDS011;53705;49.860;8.744;2023-06-26T15:05:45;7.93;;;2.83;;
66802;SDS011;53705;49.860;8.744;2023-06-26T15:08:13;6.40;;;2.92;;
66802;SDS011;53705;49.860;8.744;2023-06-26T15:10:41;4.97;;;1.33;;
66802;SDS011;53705;49.860;8.744;2023-06-26T15:13:09;5.63;;;3.45;;
66802;SDS011;53705;49.860;8.744;2023-06-26T15:15:37;4.15;;;2.40;;
66802;SDS011;53705;49.860;8.744;2023-06-26T15:18:04;5.20;;;2.78;;
66802;SDS011;53705;49.860;8.744;2023-06-26T15:20:34;4.07;;;2.10;;
66802;SDS011;53705;49.860;8.744;2023-06-26T15:23:02;4.97;;;1.77;;
66802;SDS011;53705;49.860;8.744;2023-06-26T15:25:30;6.50;;;2.45;;
66802;SDS011;53705;49.860;8.744;2023-06-26T15:28:01;16.92;;;4.75;;
66802;SDS011;53705;49.860;8.744;2023-06-26T15:30:29;5.88;;;2.28;;
66802;SDS011;53705;49.860;8.744;2023-06-26T15:32:57;8.05;;;2.55;;
66802;SDS011;53705;49.860;8.744;2023-06-26T15:35:25;5.30;;;2.63;;
66802;SDS011;53705;49.860;8.744;2023-06-26T15:37:56;5.43;;;2.00;;
66802;SDS011;53705;49.860;8.744;2023-06-26T15:40:24;6.20;;;2.17;;
66802;SDS011;53705;49.860;8.744;2023-06-26T15:42:52;8.10;;;1.77;;
66802;SDS011;53705;49.860;8.744;2023-06-26T15:45:20;4.28;;;2.08;;
66802;SDS011;53705;49.860;8.744;2023-06-26T15:47:49;6.22;;;2.08;;
66802;SDS011;53705;49.860;8.744;2023-06-26T15:50:17;5.07;;;1.92;;
66802;SDS011;53705;49.860;8.744;2023-06-26T15:52:45;2.70;;;0.68;;
66802;SDS011;53705;49.860;8.744;2023-06-26T15:55:14;3.42;;;0.88;;
66802;SDS011;53705;49.860;8.744;2023-06-26T15:57:42;4.72;;;1.65;;
66802;SDS011;53705;49.860;8.744;2023-06-26T16:00:10;3.22;;;0.57;;
66802;SDS011;53705;49.860;8.744;2023-06-26T16:02:38;5.70;;;1.35;;
66802;SDS011;53705;49.860;8.744;2023-06-26T16:05:07;2.83;;;1.70;;
66802;SDS011;53705;49.860;8.744;2023-06-26T16:07:35;3.50;;;1.48;;
66802;SDS011;53705;49.860;8.744;2023-06-26T16:10:25;2.55;;;0.60;;
66802;SDS011;53705;49.860;8.744;2023-06-26T16:12:53;2.60;;;1.58;;
66802;SDS011;53705;49.860;8.744;2023-06-26T16:15:20;4.25;;;2.17;;
66802;SDS011;53705;49.860;8.744;2023-06-26T16:17:48;5.22;;;1.17;;
66802;SDS011;53705;49.860;8.744;2023-06-26T16:20:16;2.50;;;1.40;;
66802;SDS011;53705;49.860;8.744;2023-06-26T16:22:44;3.13;;;1.08;;
66802;SDS011;53705;49.860;8.744;2023-06-26T16:25:12;5.57;;;1.40;;
66802;SDS011;53705;49.860;8.744;2023-06-26T16:27:42;3.45;;;1.00;;
66802;SDS011;53705;49.860;8.744;2023-06-26T16:30:11;2.35;;;1.05;;
66802;SDS011;53705;49.860;8.744;2023-06-26T16:32:39;4.80;;;1.40;;
66802;SDS011;53705;49.860;8.744;2023-06-26T16:35:07;4.82;;;0.80;;
66802;SDS011;53705;49.860;8.744;2023-06-26T16:37:35;3.30;;;1.00;;
66802;SDS011;53705;49.860;8.744;2023-06-26T16:40:03;4.03;;;1.63;;
66802;SDS011;53705;49.860;8.744;2023-06-26T16:42:31;3.13;;;0.63;;
66802;SDS011;53705;49.860;8.744;2023-06-26T16:45:01;4.65;;;0.63;;
66802;SDS011;53705;49.860;8.744;2023-06-26T16:47:29;4.43;;;1.30;;
66802;SDS011;53705;49.860;8.744;2023-06-26T16:50:02;5.38;;;1.17;;